createdAt,value
2023-01-25T00:01:07.305Z,-1.16
2023-01-25T00:03:34.512Z,-1.14
2023-01-25T00:06:01.921Z,-1.12
2023-01-25T00:08:29.029Z,-1.10
2023-01-25T00:10:58.358Z,-1.09
2023-01-25T00:13:26.248Z,-1.09
2023-01-25T04:11:09.744Z,-2.28
2023-01-25T04:13:38.603Z,-2.12
2023-01-25T04:16:12.439Z,-2.02
2023-01-25T04:19:13.855Z,-1.92
2023-01-25T04:21:41.195Z,-1.82
2023-01-25T04:24:08.486Z,-1.75
2023-01-25T04:26:39.017Z,-1.70
2023-01-25T04:29:06.364Z,-1.64
2023-01-25T04:31:34.187Z,-1.58
2023-01-25T04:34:01.651Z,-1.55
2023-01-25T04:36:29.014Z,-1.50
2023-01-25T04:38:56.290Z,-1.55
2023-01-25T04:41:27.150Z,-1.56
2023-01-25T04:43:55.415Z,-1.61
2023-01-25T04:46:22.967Z,-1.56
2023-01-25T04:48:50.548Z,-1.50
2023-01-25T04:51:18.372Z,-1.44
2023-01-25T04:53:46.154Z,-1.40
2023-01-25T04:56:15.861Z,-1.35
2023-01-25T04:58:54.798Z,-1.40
2023-01-25T05:01:22.500Z,-1.42
2023-01-25T05:03:51.504Z,-1.37
2023-01-25T05:06:33.440Z,-1.40
2023-01-25T05:09:00.675Z,-1.38
2023-01-25T05:11:27.943Z,-1.31
2023-01-25T05:14:01.190Z,-1.29
2023-01-25T05:16:32.073Z,-1.26
2023-01-25T05:18:59.897Z,-1.24
2023-01-25T05:21:59.254Z,-1.23
2023-01-25T05:24:33.364Z,-1.22
2023-01-25T05:27:04.289Z,-1.20
2023-01-25T05:29:57.868Z,-1.31
2023-01-25T05:32:53.147Z,-1.36
2023-01-25T05:35:20.190Z,-1.39
2023-01-25T05:37:50.358Z,-1.27
2023-01-25T05:40:22.357Z,-1.27
2023-01-25T05:43:02.927Z,-1.30
2023-01-25T05:45:31.440Z,-1.26
2023-01-25T05:47:59.629Z,-1.26
2023-01-25T05:50:27.853Z,-1.23
2023-01-25T05:53:01.146Z,-1.22
2023-01-25T05:55:29.816Z,-1.20
2023-01-25T05:58:01.736Z,-1.17
2023-01-25T06:00:29.212Z,-1.16
2023-01-25T06:03:00.225Z,-1.15
2023-01-25T06:05:27.703Z,-1.11
2023-01-25T06:07:55.517Z,-1.10
2023-01-25T06:10:25.431Z,-1.15
2023-01-25T06:13:00.516Z,-1.12
2023-01-25T06:15:27.770Z,-1.08
2023-01-25T06:18:00.261Z,-1.08
2023-01-25T06:20:39.649Z,-1.10
2023-01-25T06:23:06.936Z,-1.11
2023-01-25T06:25:34.249Z,-1.15
2023-01-25T06:28:01.196Z,-1.08
2023-01-25T06:30:28.423Z,-1.04
2023-01-25T06:32:58.332Z,-1.01
2023-01-25T06:35:25.637Z,-0.99
2023-01-25T06:37:56.196Z,-0.95
2023-01-25T06:40:23.373Z,-0.93
2023-01-25T06:42:50.561Z,-0.90
2023-01-25T06:45:18.175Z,-0.86
2023-01-25T06:47:48.342Z,-0.84
2023-01-25T06:50:15.480Z,-0.83
2023-01-25T06:52:42.509Z,-0.82
2023-01-25T06:55:14.010Z,-0.81
2023-01-25T06:57:41.276Z,-0.77
2023-01-25T07:00:08.815Z,-0.75
2023-01-25T07:02:36.939Z,-0.74
2023-01-25T07:05:04.465Z,-0.71
2023-01-25T07:07:31.444Z,-0.71
2023-01-25T07:10:00.592Z,-0.67
2023-01-25T07:12:30.373Z,-0.63
2023-01-25T07:14:57.748Z,-0.61
2023-01-25T07:17:24.941Z,-0.60
2023-01-25T07:19:52.000Z,-0.60
2023-01-25T07:22:19.009Z,-0.60
2023-01-25T07:24:50.272Z,-0.57
2023-01-25T07:27:18.064Z,-0.51
2023-01-25T07:29:45.412Z,-0.48
2023-01-25T07:32:14.380Z,-0.44
2023-01-25T07:34:41.650Z,-0.42
2023-01-25T07:37:10.265Z,-0.37
2023-01-25T07:39:37.321Z,-0.32
2023-01-25T11:57:25.024Z,-2.65
2023-01-25T12:00:03.049Z,-2.48
2023-01-25T12:06:00.275Z,-1.94
2023-01-25T12:08:32.786Z,-1.70
2023-01-25T12:11:07.200Z,-1.51
2023-01-25T12:13:48.580Z,-1.32
2023-01-25T12:16:31.228Z,-1.11
2023-01-25T12:19:17.278Z,-0.94
2023-01-25T12:22:24.601Z,-0.82
2023-01-25T12:25:03.298Z,-0.75
2023-01-25T12:27:59.250Z,-0.63
2023-01-25T12:30:35.631Z,-0.63
2023-01-25T12:33:14.696Z,-0.58
2023-01-25T12:35:58.393Z,-0.51
2023-01-25T12:38:34.331Z,-0.45
2023-01-25T12:41:12.166Z,-0.41
2023-01-25T12:43:51.039Z,-0.37
2023-01-25T12:46:30.060Z,-0.37
2023-01-25T12:49:03.022Z,-0.36
2023-01-25T12:51:37.365Z,-0.37
2023-01-25T12:54:19.925Z,-0.32
2023-01-25T12:57:11.899Z,-0.31
2023-01-25T13:00:02.915Z,-0.34
2023-01-25T13:03:08.682Z,-0.31
2023-01-25T13:05:53.906Z,-0.34
2023-01-25T13:08:39.264Z,-0.33
2023-01-25T13:11:20.752Z,-0.36
2023-01-25T13:13:48.180Z,-0.35
2023-01-25T13:16:30.219Z,-0.34
2023-01-25T13:18:58.833Z,-0.35
2023-01-25T13:21:38.059Z,-0.34
2023-01-25T13:24:26.196Z,-0.34
2023-01-25T13:26:53.113Z,-0.34
2023-01-25T13:29:30.589Z,-0.31
2023-01-25T13:31:59.392Z,-0.44
2023-01-25T13:34:35.945Z,-0.46
2023-01-25T13:37:31.107Z,-0.49
2023-01-25T13:40:17.152Z,-0.49
2023-01-25T13:43:04.049Z,-0.48
2023-01-25T13:45:35.618Z,-0.49
2023-01-25T13:48:08.673Z,-0.50
2023-01-25T13:50:40.301Z,-0.54
2023-01-25T13:53:23.230Z,-0.58
2023-01-25T13:55:56.127Z,-0.61
2023-01-25T13:58:30.989Z,-0.66
2023-01-25T14:00:58.298Z,-0.72
2023-01-25T14:03:29.096Z,-0.82
2023-01-25T14:05:58.656Z,-0.80
2023-01-25T14:08:27.119Z,-0.77
2023-01-25T14:10:55.828Z,-0.77
2023-01-25T14:13:23.838Z,-0.80
2023-01-25T14:15:59.017Z,-0.78
2023-01-25T14:18:35.302Z,-0.79
2023-01-25T14:21:22.686Z,-0.79
2023-01-25T14:23:50.897Z,-0.79
2023-01-25T14:26:26.820Z,-0.82
2023-01-25T14:29:01.648Z,-1.20
2023-01-25T14:31:40.747Z,-0.98
2023-01-25T14:34:20.256Z,-0.95
2023-01-25T14:36:47.987Z,-0.96
2023-01-25T14:39:29.067Z,-0.94
2023-01-25T14:42:01.353Z,-0.94
2023-01-25T14:44:30.482Z,-0.94
2023-01-25T14:47:24.306Z,-0.92
2023-01-25T14:49:52.042Z,-0.92
2023-01-25T14:52:22.408Z,-0.98
2023-01-25T14:54:54.463Z,-0.94
2023-01-25T14:57:30.695Z,-0.93
2023-01-25T14:59:58.532Z,-0.95
2023-01-25T15:02:44.948Z,-0.96
2023-01-25T15:05:25.503Z,-1.00
2023-01-25T15:07:55.162Z,-1.04
2023-01-25T15:10:30.825Z,-1.05
2023-01-25T15:13:12.837Z,-1.07
2023-01-25T15:15:54.060Z,-1.06
2023-01-25T15:18:51.733Z,-1.12
2023-01-25T15:21:29.789Z,-1.13
2023-01-25T15:23:59.755Z,-1.15
2023-01-25T15:26:29.842Z,-1.17
2023-01-25T15:28:59.784Z,-1.16
2023-01-25T15:31:28.682Z,-1.26
2023-01-25T15:33:57.106Z,-1.21
2023-01-25T15:36:24.362Z,-1.26
2023-01-25T15:38:51.820Z,-1.22
2023-01-25T15:41:19.259Z,-1.20
2023-01-25T20:06:32.370Z,-4.58
2023-01-25T20:08:58.531Z,-4.42
2023-01-25T20:11:29.058Z,-4.22
2023-01-25T20:13:59.319Z,-4.01
2023-01-25T20:16:28.379Z,-3.77
2023-01-25T20:18:57.323Z,-3.60
2023-01-25T20:21:26.285Z,-3.41
2023-01-25T20:23:57.312Z,-3.17
2023-01-25T20:26:29.715Z,-2.97
2023-01-25T20:28:59.159Z,-2.78
2023-01-25T20:31:31.242Z,-2.59
2023-01-25T20:34:04.141Z,-2.46
2023-01-25T20:36:32.831Z,-2.32
2023-01-25T20:39:00.413Z,-2.20
2023-01-25T20:41:27.880Z,-2.31
2023-01-25T20:44:07.249Z,-2.15
2023-01-25T20:46:37.569Z,-2.09
2023-01-25T20:49:10.757Z,-2.05
2023-01-25T20:51:37.835Z,-1.96
2023-01-25T20:54:04.861Z,-1.96
2023-01-25T20:56:32.749Z,-2.05
2023-01-25T20:58:59.797Z,-2.07
2023-01-25T21:01:37.257Z,-2.01
2023-01-25T21:04:06.768Z,-1.99
2023-01-25T21:06:35.517Z,-2.05
2023-01-25T21:09:03.843Z,-1.90
2023-01-25T21:11:31.473Z,-1.85
2023-01-25T21:13:59.839Z,-1.78
2023-01-25T21:16:27.734Z,-1.72
2023-01-25T21:19:00.470Z,-1.67
2023-01-25T21:21:30.852Z,-1.61
2023-01-25T21:24:00.412Z,-1.62
2023-01-25T21:26:30.545Z,-1.59
2023-01-25T21:28:59.857Z,-1.54
2023-01-25T21:31:28.372Z,-1.51
2023-01-25T21:33:56.449Z,-1.49
2023-01-25T21:36:23.970Z,-1.52
2023-01-25T21:38:53.091Z,-1.68
2023-01-25T21:41:29.835Z,-1.71
2023-01-25T21:44:17.505Z,-1.67
2023-01-25T21:47:12.382Z,-1.85
2023-01-25T21:49:52.604Z,-2.05
2023-01-25T21:52:20.266Z,-2.27
2023-01-25T21:54:47.684Z,-2.38
2023-01-25T21:57:14.928Z,-2.51
2023-01-25T21:59:42.104Z,-2.63
2023-01-25T22:02:14.148Z,-2.46
2023-01-25T22:04:41.386Z,-2.42
2023-01-25T22:07:09.763Z,-2.46
2023-01-25T22:09:36.953Z,-2.40
